Villa Castelli, Argentina
Current Conditions -  °F | °C
As of 9:00 AM on Wednesday 28 Jan 2015 (Local Time) from SCSE Reporting Station
Few Clouds Few Clouds  
Wind Chill: 16°   Ceiling: Unl
Heat Index: 16°   Visibility: 6mi
Dew Point: 15°   Wind: 2mph
Humidity: 94%   Direction: 250°WSW
Pressure: 29.94"   Gusts: NA
Location:  29°S, 68.18°W
Report Text: SCSE 281200Z 25002KT 9999 FEW010 16/15 Q1014
Loading
Personal Weather Stations






























Interactive Weather Map New forecast layout! Learn more

10-Day Weather Forecast

Advertisements
Track Severe Weather on mobile